Airfield :
LOGIN :

Register | Disclaimer

   EN    FR    IT 

 










Legend :    VFR   Marginal VFR   IFR   Intensive IFR   Very Intensive IFR
Visi :
Ceiling :
>= 8 km
>= 3000ft
5 to 8 km
1000 to 3000 ft
1500m to 5 km
500 to 1000 ft
800 to 1500m
200 to 500 ft
< 800m
< 200 ft
Symbols :   Thunderstorms  Fog  Heavy snow  Heavy precipitations  Wind > 20 kt
SIGMETs :     Misc.  Thunderstorms  Icing  Turbulence  Mountain Waves  Volcanic Ashes







- Airport Elevation : 0 ft
- IATA code : QFR


LIRH - Frosinone Military

CURRENT METAR :
  • 211655Z 21002KT 6000 NSC 12/04 Q1027 RMK SKC MON LIB NC VIS MIN 6000 WIND THR16 /////KT WHT

EXPIRED METARs :
  • 211555Z 25002KT 6000 FEW035 14/04 Q1027
  • 211455Z 25003KT 6000 FEW040 15/04 Q1027 RMK FEW MON LIB NC VIS MIN 6000 WIND THR16 /////KT WHT

TAF TAF LIRH
Valid from the 21 at 15:00 until the 22 at 00:00 UTC


211400Z 2115/2124 VRB03KT 6000 FEW035
BECMG 2118/2120 3000 BR
No reported NOTAMs for that airfield.
2 SIGMETs reported for the Roma FIR (LIRR) :
 
Volcanic ashes
LIRR SIGMET 9 VALID 211814/220014 LIIB
LIRR ROMA FIR VA ERUPTION MT ETNA PSN N3744 E01500 VA CLD OBS AT 1800Z WI N3630 E01504 - N3645 E01419 - N3730 E01434 - N3740 E01500 - N3630 E01504 SFC/FL120 NC FCST AT 22/0000Z WI N3630 E01456 - N3740 E01500 - N3655 E01600 - N3630 E01530 - N3630 E01456=
Volcanic ashes
LIRR SIGMET 7 VALID 211214/211814 LIIB
LIRR ROMA FIR VA ERUPTION MT ETNA PSN N3744 E01500 VA CLD OBS AT 1200Z WI N3719 E01455 - N3725 E01440 - N3745 E01455 - N3745 E01500 - N3719 E01455 SFC/FL150 NC FCST AT 1800Z WI N3640 E01445 - N3740 E01500 - N3645 E01534 - N3640 E01445=



MET'MAP, your aeronautical weather chart ! - Copyright ORBIFLY December 2007 - Disclaimer

ORBIFLY MET'MAP TEAM :

Programming & Development : Alexandra Zaïnal
Concept & Development : Baudouin d'Aumeries
Co-Development & Prog : Marc-Olivier Méhu
Technical & hardware support : Manuel Goepfert

Contact : metmap@orbifly.com




SOURCES & CREDITS :

   NOAA